KLFT

Lafayette Regional/Paul Fournet Field Airport

Lafayette, Louisiana, USA
METAR KLFT 180842Z AUTO 00000KT 4SM BR SCT002 BKN012 OVC033 17/17 A3013 RMK AO2 RAE0755B08E23 P0001 T01720172
Observed Flight Rules
Dec-18 @ 08:42 UTC (16 minutes ago) Marginal Visual Flight Rules
Wind Visibility Clouds Conditions
Calm 4 miles
  • Scattered at 200' AGL
  • Broken at 1,200' AGL
  • Overcast at 3,300' AGL
  • Mist
Temperatures Readings Precipitation
Current 17°C / 63°F
Dewpoint 17°C / 63°F
Humidity 100%
Altimeter 30.13" Hg
Pressure 1020 hPa
Elevation 11
Current Rain 0.01
METAR KLFT 180842Z AUTO 00000KT 4SM BR SCT002 BKN012 OVC033 17/17 A3013 RMK AO2 RAE0755B08E23 P0001 T01720172
Observed Flight Rules
Dec-18 @ 08:42 UTC
(16 minutes ago)
MVFR
Wind Visibility
Calm 4 miles
Clouds
  • Scattered at 200' AGL
  • Broken at 1,200' AGL
  • Overcast at 3,300' AGL
Conditions
  • Mist
Temperature Dewpoint
17°C / 63°F 17°C / 63°F
Humidity Altimeter Pressure
100% 30.13" Hg 1020 hPa
Current Rain
0.01